Time;durP1;ratioP1;P1;durP2;ratioP2;P2;SDS_P1;SDS_P2;PMS_P1;PMS_P2;Temp;Humidity;BMP_temperature;BMP_pressure;BME280_temperature;BME280_humidity;BME280_pressure;Samples;Min_cycle;Max_cycle;Signal;HPM_P1;HPM_P2
2023/08/21 00:00:39;;;;;;;6.25;1.70;;;;;;;20.98;100.00;102237.94;5047663;28;20063;-67
2023/08/21 00:03:06;;;;;;;5.90;1.80;;;;;;;20.94;100.00;102233.97;5030025;28;20080;-68
2023/08/21 00:05:33;;;;;;;6.05;1.52;;;;;;;20.90;100.00;102236.16;5027787;28;20110;-68
2023/08/21 00:08:00;;;;;;;8.75;1.70;;;;;;;20.91;100.00;102235.16;5038965;28;20053;-68
2023/08/21 00:10:26;;;;;;;6.78;2.00;;;;;;;20.92;100.00;102236.00;5038606;28;20512;-68
2023/08/21 00:12:53;;;;;;;6.50;1.77;;;;;;;20.86;100.00;102234.88;5048200;28;20538;-68
2023/08/21 00:15:19;;;;;;;5.97;1.85;;;;;;;20.84;100.00;102234.22;5039748;28;20049;-67
2023/08/21 00:17:46;;;;;;;4.15;1.60;;;;;;;20.88;100.00;102235.53;5039263;28;20041;-67
2023/08/21 00:20:13;;;;;;;6.50;2.00;;;;;;;20.93;100.00;102233.16;5048629;28;20084;-68
2023/08/21 00:22:39;;;;;;;4.50;1.50;;;;;;;20.95;100.00;102227.59;5046025;28;20076;-67
2023/08/21 00:25:06;;;;;;;8.45;2.00;;;;;;;20.94;100.00;102231.31;5024488;28;20709;-67
2023/08/21 00:27:33;;;;;;;3.97;1.70;;;;;;;20.89;100.00;102229.16;5041300;28;20071;-67
2023/08/21 00:30:00;;;;;;;6.35;1.73;;;;;;;20.77;100.00;102227.13;5040862;28;20867;-66
2023/08/21 00:32:27;;;;;;;4.63;1.58;;;;;;;20.71;100.00;102221.50;5033290;28;20064;-67
2023/08/21 00:34:53;;;;;;;6.55;1.83;;;;;;;20.64;100.00;102223.22;5048957;28;20123;-67
2023/08/21 00:37:20;;;;;;;8.18;1.95;;;;;;;20.65;100.00;102218.72;5043579;28;20044;-66
2023/08/21 00:39:46;;;;;;;6.10;1.85;;;;;;;20.71;100.00;102212.66;5017446;28;20052;-66
2023/08/21 00:42:13;;;;;;;6.40;2.00;;;;;;;20.76;100.00;102218.31;5045199;28;20068;-65
2023/08/21 00:44:39;;;;;;;4.88;1.67;;;;;;;20.76;100.00;102220.13;5036130;28;20050;-67
2023/08/21 00:47:06;;;;;;;5.88;1.85;;;;;;;20.76;100.00;102220.97;5021576;28;20136;-67
2023/08/21 00:49:33;;;;;;;7.38;1.70;;;;;;;20.74;100.00;102223.00;5037865;28;20049;-68
2023/08/21 00:52:01;;;;;;;5.03;1.87;;;;;;;20.76;100.00;102230.78;5041075;28;20053;-66
2023/08/21 00:54:28;;;;;;;4.70;1.67;;;;;;;20.73;100.00;102226.66;5042447;28;20053;-67
2023/08/21 00:56:54;;;;;;;4.70;1.85;;;;;;;20.73;100.00;102227.47;5037621;28;20655;-67
2023/08/21 00:59:22;;;;;;;5.43;1.55;;;;;;;20.74;100.00;102220.31;5039456;28;20102;-66
2023/08/21 01:01:48;;;;;;;5.35;2.05;;;;;;;20.72;100.00;102219.66;5036073;28;20131;-67
2023/08/21 01:04:15;;;;;;;5.20;1.88;;;;;;;20.69;100.00;102217.34;5049978;28;20136;-67
2023/08/21 01:06:42;;;;;;;6.40;2.15;;;;;;;20.66;100.00;102218.56;5037151;28;20128;-67
2023/08/21 01:09:11;;;;;;;8.10;1.97;;;;;;;20.67;100.00;102214.03;5036621;28;20048;-67
2023/08/21 01:12:02;;;;;;;7.82;1.60;;;;;;;20.66;100.00;102210.56;5042577;28;20128;-67
2023/08/21 01:14:52;;;;;;;3.88;1.88;;;;;;;20.70;100.00;102211.84;5029592;28;20676;-67
2023/08/21 01:17:20;;;;;;;7.13;2.50;;;;;;;20.73;100.00;102218.66;5041711;28;20719;-67
2023/08/21 01:19:49;;;;;;;6.20;1.67;;;;;;;20.72;100.00;102217.81;5032525;28;20053;-67
2023/08/21 01:22:16;;;;;;;5.72;2.08;;;;;;;20.69;100.00;102214.69;5041402;28;20048;-67
2023/08/21 01:24:42;;;;;;;6.20;2.10;;;;;;;20.62;100.00;102206.59;5036326;28;20104;-67
2023/08/21 01:27:10;;;;;;;4.95;2.10;;;;;;;20.61;100.00;102204.91;5034691;28;20045;-67
2023/08/21 01:29:37;;;;;;;8.32;2.50;;;;;;;20.54;100.00;102199.44;5033571;28;20049;-67
2023/08/21 01:32:03;;;;;;;8.00;2.00;;;;;;;20.49;100.00;102209.81;5036450;28;20053;-67
2023/08/21 01:34:33;;;;;;;8.20;2.00;;;;;;;20.43;100.00;102202.53;5049912;28;20493;-67
2023/08/21 01:37:03;;;;;;;7.13;2.03;;;;;;;20.43;100.00;102205.19;5039552;28;20444;-67
2023/08/21 01:39:29;;;;;;;7.40;2.00;;;;;;;20.45;100.00;102203.19;5040529;28;20045;-67
2023/08/21 01:41:57;;;;;;;6.47;1.90;;;;;;;20.44;100.00;102201.50;5046436;28;20053;-67
2023/08/21 01:44:24;;;;;;;;;;;;;;;20.40;100.00;102205.53;5045110;28;20045;-67
2023/08/21 01:46:50;;;;;;;7.68;2.05;;;;;;;20.35;100.00;102203.41;5039562;28;19925;-66
2023/08/21 01:49:19;;;;;;;3.28;1.73;;;;;;;20.28;100.00;102206.97;5049151;28;20156;-67
2023/08/21 01:51:46;;;;;;;5.05;1.88;;;;;;;20.24;100.00;102211.81;5051373;28;20051;-67
2023/08/21 01:54:13;;;;;;;6.85;2.10;;;;;;;20.21;100.00;102200.69;5035968;28;20059;-67
2023/08/21 01:56:39;;;;;;;5.10;1.75;;;;;;;20.18;100.00;102219.69;5038595;28;20675;-67
2023/08/21 01:59:09;;;;;;;3.75;1.92;;;;;;;20.13;100.00;102213.06;5041612;28;20049;-67
2023/08/21 02:01:35;;;;;;;7.65;2.15;;;;;;;20.13;100.00;102210.41;5051763;28;20041;-67
2023/08/21 02:04:02;;;;;;;7.85;2.30;;;;;;;20.17;100.00;102213.53;5040091;28;20501;-67
2023/08/21 02:06:28;;;;;;;3.35;1.80;;;;;;;20.13;100.00;102204.22;5043701;28;20045;-67
2023/08/21 02:08:55;;;;;;;9.35;2.30;;;;;;;20.10;100.00;102202.75;5040683;28;20126;-67
2023/08/21 02:11:21;;;;;;;4.40;2.17;;;;;;;20.09;100.00;102210.91;5038105;28;20720;-67
2023/08/21 02:13:48;;;;;;;5.65;1.92;;;;;;;20.07;100.00;102212.91;5045924;28;20044;-67
2023/08/21 02:16:14;;;;;;;5.70;2.55;;;;;;;20.06;100.00;102217.44;5038356;28;20051;-67
2023/08/21 02:18:41;;;;;;;7.28;2.38;;;;;;;20.07;100.00;102210.25;5048894;28;20144;-67
2023/08/21 02:21:07;;;;;;;11.18;2.80;;;;;;;20.09;100.00;102216.25;5039498;28;20128;-67
2023/08/21 02:23:34;;;;;;;6.10;2.17;;;;;;;20.09;100.00;102209.09;5046396;28;20111;-67
2023/08/21 02:26:00;;;;;;;7.57;2.97;;;;;;;20.10;100.00;102209.91;5041574;28;20059;-67
2023/08/21 02:28:26;;;;;;;7.55;2.15;;;;;;;20.11;100.00;102212.41;5050241;28;20059;-67
2023/08/21 02:30:53;;;;;;;5.55;2.08;;;;;;;20.13;100.00;102215.72;5047428;28;20057;-67
2023/08/21 02:33:19;;;;;;;6.75;2.42;;;;;;;20.17;100.00;102216.22;5042218;28;20057;-67
2023/08/21 02:35:46;;;;;;;5.32;2.40;;;;;;;20.15;100.00;102221.72;5042315;28;20049;-67
2023/08/21 02:38:12;;;;;;;6.90;2.38;;;;;;;20.20;100.00;102220.34;5046273;28;20366;-67
2023/08/21 02:40:39;;;;;;;7.22;2.25;;;;;;;20.24;100.00;102213.66;5044426;28;20053;-67
2023/08/21 02:43:06;;;;;;;4.57;2.25;;;;;;;20.24;100.00;102208.34;5042655;28;20068;-67
2023/08/21 02:45:32;;;;;;;4.80;1.90;;;;;;;20.24;100.00;102209.16;5037844;28;20103;-67
2023/08/21 02:47:59;;;;;;;6.53;2.45;;;;;;;20.21;100.00;102217.50;5063185;28;20052;-67
2023/08/21 02:50:25;;;;;;;6.20;2.10;;;;;;;20.13;100.00;102218.41;5037993;28;20044;-67
2023/08/21 02:52:51;;;;;;;10.38;3.60;;;;;;;20.14;100.00;102216.56;5040893;28;20068;-67
2023/08/21 02:55:18;;;;;;;5.95;2.55;;;;;;;20.14;100.00;102208.56;5045671;28;20053;-67
2023/08/21 02:57:45;;;;;;;5.63;2.85;;;;;;;20.19;100.00;102213.34;5048054;28;20421;-68
2023/08/21 03:00:12;;;;;;;5.90;2.28;;;;;;;20.18;100.00;102207.19;5049288;28;20593;-67
2023/08/21 03:02:42;;;;;;;6.43;2.33;;;;;;;20.15;100.00;102211.06;5041230;28;20466;-68
2023/08/21 03:05:10;;;;;;;9.48;2.10;;;;;;;20.12;100.00;102211.38;5048621;28;20766;-67
2023/08/21 03:07:37;;;;;;;8.25;2.30;;;;;;;20.08;100.00;102203.94;5042202;28;20122;-67
2023/08/21 03:10:04;;;;;;;6.65;2.92;;;;;;;19.99;100.00;102210.31;5041801;28;20167;-67
2023/08/21 03:12:31;;;;;;;7.47;2.47;;;;;;;19.93;100.00;102214.50;5042453;28;20109;-67
2023/08/21 03:14:57;;;;;;;5.55;2.33;;;;;;;19.91;100.00;102217.31;5043020;28;20103;-67
2023/08/21 03:17:24;;;;;;;6.47;1.98;;;;;;;19.93;100.00;102217.16;5045266;28;20052;-67
2023/08/21 03:19:50;;;;;;;6.05;2.20;;;;;;;19.95;100.00;102216.00;5039294;28;20049;-67
2023/08/21 03:22:17;;;;;;;7.43;2.15;;;;;;;20.00;100.00;102225.31;5041529;28;20175;-67
2023/08/21 03:24:43;;;;;;;8.02;2.10;;;;;;;20.04;100.00;102216.78;5047432;28;20076;-67
2023/08/21 03:27:10;;;;;;;8.07;2.53;;;;;;;20.08;100.00;102218.06;5049096;28;20497;-66
2023/08/21 03:29:36;;;;;;;5.40;2.15;;;;;;;20.10;100.00;102217.91;5041637;28;20132;-66
2023/08/21 03:32:03;;;;;;;5.07;2.28;;;;;;;20.10;100.00;102223.22;5036596;28;20568;-67
2023/08/21 03:34:30;;;;;;;9.23;2.60;;;;;;;20.05;100.00;102218.44;5043369;28;20049;-67
2023/08/21 03:36:56;;;;;;;5.32;2.03;;;;;;;20.10;100.00;102231.22;5038842;28;20044;-67
2023/08/21 03:39:23;;;;;;;7.28;1.88;;;;;;;20.11;100.00;102217.75;5025515;28;20072;-67
2023/08/21 03:41:49;;;;;;;5.30;2.17;;;;;;;20.11;100.00;102219.56;5036495;28;20080;-66
2023/08/21 03:44:15;;;;;;;7.93;2.00;;;;;;;20.09;100.00;102219.75;5048280;28;20076;-66
2023/08/21 03:46:42;;;;;;;8.00;2.30;;;;;;;20.07;100.00;102213.78;5038508;28;20053;-67
2023/08/21 03:49:08;;;;;;;5.93;2.38;;;;;;;20.04;100.00;102222.09;5030421;28;20045;-66
2023/08/21 03:51:35;;;;;;;5.78;2.22;;;;;;;19.99;100.00;102216.47;5046224;28;20111;-67
2023/08/21 03:54:01;;;;;;;6.20;3.05;;;;;;;19.95;100.00;102217.81;5037263;28;20123;-67
2023/08/21 03:56:28;;;;;;;10.98;2.50;;;;;;;19.89;100.00;102213.19;5054398;28;20080;-66
2023/08/21 03:58:56;;;;;;;8.82;2.40;;;;;;;19.86;100.00;102213.56;5036931;28;20051;-67
2023/08/21 04:01:22;;;;;;;7.10;2.00;;;;;;;19.78;100.00;102210.91;5037248;28;20053;-67
2023/08/21 04:03:48;;;;;;;4.55;2.10;;;;;;;19.73;100.00;102211.44;5034336;28;20104;-66
2023/08/21 04:06:15;;;;;;;6.88;2.10;;;;;;;19.67;100.00;102209.44;5043870;28;20128;-67
2023/08/21 04:08:41;;;;;;;5.15;1.80;;;;;;;19.65;100.00;102211.44;5043644;28;20876;-67
2023/08/21 04:11:09;;;;;;;6.97;1.85;;;;;;;19.63;100.00;102205.47;5042918;28;20394;-67
2023/08/21 04:13:35;;;;;;;6.27;2.00;;;;;;;19.58;100.00;102216.59;5041976;28;20077;-67
2023/08/21 04:16:02;;;;;;;6.53;1.92;;;;;;;19.50;100.00;102211.31;5029063;28;20074;-66
2023/08/21 04:18:28;;;;;;;6.72;2.05;;;;;;;19.52;100.00;102214.63;5041033;28;20524;-67
2023/08/21 04:21:08;;;;;;;8.63;1.98;;;;;;;19.54;100.00;102215.28;5050671;28;20052;-66
2023/08/21 04:23:35;;;;;;;6.22;1.90;;;;;;;19.53;100.00;102218.97;5050596;28;20540;-67
2023/08/21 04:26:02;;;;;;;6.22;1.98;;;;;;;19.54;100.00;102215.28;5040262;28;20082;-66
2023/08/21 04:28:33;;;;;;;3.77;1.67;;;;;;;19.46;100.00;102213.50;5034610;28;20147;-67
2023/08/21 04:30:59;;;;;;;9.50;2.00;;;;;;;19.46;100.00;102221.47;5045997;28;20045;-66
2023/08/21 04:33:28;;;;;;;5.15;1.67;;;;;;;19.53;100.00;102224.28;5044433;28;20045;-67
2023/08/21 04:35:54;;;;;;;6.13;1.63;;;;;;;19.57;100.00;102222.94;5038391;28;20076;-67
2023/08/21 04:38:21;;;;;;;8.80;2.47;;;;;;;19.64;100.00;102225.75;5042021;28;20049;-67
2023/08/21 04:40:47;;;;;;;8.15;2.65;;;;;;;19.69;100.00;102229.56;5042038;28;20119;-67
2023/08/21 04:43:14;;;;;;;5.07;1.95;;;;;;;19.71;100.00;102232.91;5048843;28;20556;-65
2023/08/21 04:45:48;;;;;;;5.10;1.85;;;;;;;19.75;100.00;102228.06;5029488;28;20113;-67
2023/08/21 04:48:14;;;;;;;7.40;1.90;;;;;;;19.74;100.00;102223.75;5045167;28;20157;-66
2023/08/21 04:50:41;;;;;;;4.93;1.90;;;;;;;19.74;100.00;102219.25;5039657;28;20073;-67
2023/08/21 04:53:07;;;;;;;8.05;1.83;;;;;;;19.73;100.00;102222.91;5029243;28;20080;-67
2023/08/21 04:55:34;;;;;;;5.55;1.73;;;;;;;19.68;100.00;102227.06;5019846;28;20098;-66
2023/08/21 04:58:00;;;;;;;7.20;1.40;;;;;;;19.62;100.00;102225.09;5036441;28;20742;-66
2023/08/21 05:00:27;;;;;;;4.55;1.77;;;;;;;19.59;100.00;102223.59;5040210;28;20054;-66
2023/08/21 05:02:53;;;;;;;6.35;1.83;;;;;;;19.58;100.00;102229.09;5041070;28;20550;-67
2023/08/21 05:05:20;;;;;;;4.20;1.65;;;;;;;19.54;100.00;102233.94;5046078;28;20060;-67
2023/08/21 05:07:46;;;;;;;4.85;2.13;;;;;;;19.56;100.00;102243.41;5041256;28;20121;-67
2023/08/21 05:10:13;;;;;;;8.52;2.03;;;;;;;19.56;100.00;102237.25;5042156;28;20053;-66
2023/08/21 05:12:40;;;;;;;6.32;1.70;;;;;;;19.60;100.00;102248.38;5038582;28;20095;-66
2023/08/21 05:15:07;;;;;;;5.65;1.80;;;;;;;19.60;100.00;102243.06;5040087;28;20417;-67
2023/08/21 05:17:33;;;;;;;4.70;1.90;;;;;;;19.59;100.00;102239.56;5040276;28;20045;-67
2023/08/21 05:20:00;;;;;;;4.85;1.70;;;;;;;19.60;100.00;102235.94;5035504;28;20068;-67
2023/08/21 05:22:26;;;;;;;5.65;2.00;;;;;;;19.60;100.00;102233.25;5039193;28;20099;-67
2023/08/21 05:24:53;;;;;;;6.97;1.90;;;;;;;19.58;100.00;102242.41;5034173;28;20053;-67
2023/08/21 05:27:19;;;;;;;8.77;2.17;;;;;;;19.52;100.00;102246.56;5038991;28;20171;-67
2023/08/21 05:29:45;;;;;;;6.95;2.00;;;;;;;19.52;100.00;102255.41;5050546;28;20071;-67
2023/08/21 05:32:12;;;;;;;8.70;2.25;;;;;;;19.58;100.00;102261.03;5035825;28;20057;-66
2023/08/21 05:34:39;;;;;;;5.97;1.80;;;;;;;19.60;100.00;102259.03;5048996;28;20148;-67
2023/08/21 05:37:05;;;;;;;6.38;2.08;;;;;;;19.57;100.00;102254.88;5045697;28;20084;-68
2023/08/21 05:39:32;;;;;;;5.30;1.80;;;;;;;19.63;100.00;102259.53;5037709;28;20056;-66
2023/08/21 05:41:58;;;;;;;7.85;1.85;;;;;;;19.73;100.00;102252.19;5036966;28;20127;-66
2023/08/21 05:44:25;;;;;;;4.93;1.63;;;;;;;19.83;100.00;102257.31;5047279;28;20501;-67
2023/08/21 05:46:51;;;;;;;7.93;2.00;;;;;;;19.94;100.00;102264.09;5049511;28;20044;-66
2023/08/21 05:49:18;;;;;;;4.00;1.80;;;;;;;20.01;100.00;102259.72;5043545;28;20056;-67
2023/08/21 05:51:44;;;;;;;5.00;2.00;;;;;;;20.06;100.00;102267.22;5045983;28;20049;-67
2023/08/21 05:54:11;;;;;;;6.40;1.70;;;;;;;20.10;100.00;102258.69;5010019;28;20076;-66
2023/08/21 05:56:37;;;;;;;7.00;1.90;;;;;;;20.12;100.00;102262.00;5044499;28;20110;-67
2023/08/21 05:59:04;;;;;;;5.72;1.60;;;;;;;20.15;100.00;102268.84;5039303;28;20052;-67
2023/08/21 06:01:30;;;;;;;6.95;1.77;;;;;;;20.15;100.00;102264.34;5044507;28;20489;-67
2023/08/21 06:03:57;;;;;;;6.10;1.95;;;;;;;20.20;100.00;102262.97;5041504;28;20509;-67
2023/08/21 06:06:27;;;;;;;6.47;2.00;;;;;;;20.24;100.00;102270.44;5032500;28;20045;-66
2023/08/21 06:08:53;;;;;;;7.10;1.80;;;;;;;20.33;100.00;102266.72;5036517;28;20067;-68
2023/08/21 06:11:19;;;;;;;5.35;1.98;;;;;;;20.40;100.00;102266.00;5035413;28;20529;-66
2023/08/21 06:13:47;;;;;;;5.65;1.70;;;;;;;20.45;100.00;102267.16;5045521;28;20068;-67
2023/08/21 06:16:14;;;;;;;7.05;2.03;;;;;;;20.52;100.00;102262.78;5042082;28;20060;-66
2023/08/21 06:18:40;;;;;;;5.45;2.25;;;;;;;20.61;100.00;102268.06;5049927;28;20139;-67
2023/08/21 06:21:07;;;;;;;7.97;2.03;;;;;;;20.68;100.00;102269.84;5043517;28;20040;-67
2023/08/21 06:23:33;;;;;;;7.55;2.40;;;;;;;20.76;100.00;102276.13;5039210;28;20648;-67
2023/08/21 06:26:00;;;;;;;7.10;2.33;;;;;;;20.80;100.00;102278.25;5044313;28;20047;-66
2023/08/21 06:28:26;;;;;;;11.57;2.05;;;;;;;20.87;100.00;102281.03;5038309;28;20052;-67
2023/08/21 06:31:03;;;;;;;7.88;1.85;;;;;;;20.95;100.00;102283.63;5029118;28;20601;-66
2023/08/21 06:33:29;;;;;;;7.97;1.88;;;;;;;21.00;100.00;102288.44;5035607;28;20041;-66
2023/08/21 06:35:56;;;;;;;6.13;2.00;;;;;;;21.05;100.00;102280.72;5023740;28;20645;-66
2023/08/21 06:38:22;;;;;;;10.40;2.45;;;;;;;21.12;100.00;102289.66;5038049;28;20054;-68
2023/08/21 06:40:48;;;;;;;9.55;2.13;;;;;;;21.17;100.00;102284.63;5015357;28;20049;-67
2023/08/21 06:43:15;;;;;;;8.43;2.10;;;;;;;21.21;100.00;102277.06;5028695;28;20045;-68
2023/08/21 06:45:42;;;;;;;6.18;2.10;;;;;;;21.26;100.00;102286.19;5028208;28;20508;-68
2023/08/21 06:48:08;;;;;;;6.80;2.10;;;;;;;21.27;100.00;102281.69;5037996;28;20041;-67
2023/08/21 06:50:37;;;;;;;8.55;2.20;;;;;;;21.28;100.00;102284.16;5035457;28;20084;-67
2023/08/21 06:53:03;;;;;;;5.80;1.83;;;;;;;21.29;100.00;102283.16;5032314;28;20575;-67
2023/08/21 06:55:30;;;;;;;9.85;2.05;;;;;;;21.30;100.00;102287.47;5028916;28;20108;-68
2023/08/21 06:57:56;;;;;;;8.55;2.20;;;;;;;21.30;100.00;102279.47;5031317;28;20048;-68
2023/08/21 07:00:23;;;;;;;12.10;2.10;;;;;;;21.32;100.00;102287.28;5010158;28;20096;-67
2023/08/21 07:02:49;;;;;;;9.35;2.10;;;;;;;21.31;100.00;102289.13;5029728;28;20091;-67
2023/08/21 07:05:16;;;;;;;9.25;2.10;;;;;;;21.36;100.00;102288.59;5037661;28;20095;-68
2023/08/21 07:07:43;;;;;;;7.43;2.20;;;;;;;21.38;100.00;102291.06;5035101;28;20628;-68
2023/08/21 07:10:09;;;;;;;9.10;1.95;;;;;;;21.38;100.00;102286.56;5029668;28;20045;-67
2023/08/21 07:12:36;;;;;;;7.30;1.75;;;;;;;21.39;100.00;102282.91;5026734;28;20053;-68
2023/08/21 07:15:03;;;;;;;9.65;2.22;;;;;;;21.41;100.00;102291.53;5021223;28;20597;-67
2023/08/21 07:17:30;;;;;;;8.23;1.63;;;;;;;21.44;100.00;102291.19;5022876;28;20049;-68
2023/08/21 07:19:56;;;;;;;11.73;2.10;;;;;;;21.48;100.00;102287.19;5021217;28;20282;-68
2023/08/21 07:22:23;;;;;;;8.43;1.77;;;;;;;21.53;100.00;102290.09;5027935;28;20083;-68
2023/08/21 07:24:50;;;;;;;11.43;2.40;;;;;;;21.63;99.94;102294.34;5030015;28;20738;-67
2023/08/21 07:27:16;;;;;;;7.13;1.77;;;;;;;21.69;100.00;102288.28;5028149;28;20128;-70
2023/08/21 07:29:43;;;;;;;9.10;1.95;;;;;;;21.73;100.00;102290.38;5026319;28;20141;-69
2023/08/21 07:32:09;;;;;;;6.38;1.75;;;;;;;21.77;100.00;102285.50;5013989;28;20053;-67
2023/08/21 07:34:36;;;;;;;8.52;2.00;;;;;;;21.83;100.00;102295.44;5044521;28;20072;-68
2023/08/21 07:37:02;;;;;;;6.68;1.92;;;;;;;21.91;100.00;102290.03;5028137;28;20103;-68
2023/08/21 07:39:29;;;;;;;9.02;1.80;;;;;;;22.00;100.00;102285.38;5026801;28;20051;-68
2023/08/21 07:41:55;;;;;;;10.07;2.22;;;;;;;22.09;100.00;102288.75;5032279;28;20084;-68
2023/08/21 07:44:22;;;;;;;7.72;2.15;;;;;;;22.18;100.00;102289.50;5037274;28;20053;-67
2023/08/21 07:46:48;;;;;;;6.30;1.88;;;;;;;22.27;100.00;102288.41;5031675;28;20057;-66
2023/08/21 07:49:15;;;;;;;7.70;1.65;;;;;;;22.37;99.45;102302.28;5024183;28;20153;-68
2023/08/21 07:51:41;;;;;;;9.18;1.70;;;;;;;22.47;100.00;102296.63;5038299;28;20045;-67
2023/08/21 07:54:08;;;;;;;6.10;1.55;;;;;;;22.56;100.00;102292.84;5020663;28;20053;-68
2023/08/21 07:56:35;;;;;;;7.82;1.80;;;;;;;22.64;99.09;102299.88;5029587;28;20667;-67
2023/08/21 07:59:02;;;;;;;7.57;1.98;;;;;;;22.69;98.23;102300.97;5017493;28;20049;-68
2023/08/21 08:01:29;;;;;;;8.30;1.63;;;;;;;22.79;97.78;102297.97;5018167;28;20053;-68
2023/08/21 08:03:55;;;;;;;9.55;1.77;;;;;;;22.85;95.55;102307.06;5022308;28;20358;-68
2023/08/21 08:06:23;;;;;;;8.10;1.90;;;;;;;22.96;96.40;102301.22;5025605;28;20054;-69
2023/08/21 08:08:50;;;;;;;9.27;1.87;;;;;;;23.04;96.50;102306.44;5023410;28;20099;-67
2023/08/21 08:11:16;;;;;;;7.68;1.67;;;;;;;23.08;95.66;102296.19;5031118;28;20302;-69
2023/08/21 08:13:42;;;;;;;7.80;1.65;;;;;;;23.20;93.41;102304.53;5022565;28;20081;-68
2023/08/21 08:16:09;;;;;;;7.05;1.70;;;;;;;23.20;88.83;102310.69;5017990;28;20057;-67
2023/08/21 08:18:35;;;;;;;8.05;1.25;;;;;;;23.39;89.58;102309.19;5026945;28;20111;-68
2023/08/21 08:21:02;;;;;;;7.45;1.77;;;;;;;23.58;86.49;102309.50;5026261;28;20061;-68
2023/08/21 08:23:29;;;;;;;9.00;1.67;;;;;;;23.78;85.90;102307.81;5021790;28;20076;-68
2023/08/21 08:25:55;;;;;;;6.55;1.38;;;;;;;23.85;85.14;102300.59;5036538;28;20072;-68
2023/08/21 08:28:21;;;;;;;5.65;1.20;;;;;;;23.95;81.96;102305.59;5008076;28;20616;-68
2023/08/21 08:30:48;;;;;;;8.38;1.50;;;;;;;23.95;80.74;102297.56;5038277;28;20052;-67
2023/08/21 08:33:15;;;;;;;6.25;1.60;;;;;;;23.98;78.89;102301.72;5020680;28;20514;-68
2023/08/21 08:35:42;;;;;;;11.00;2.37;;;;;;;24.02;81.51;102305.66;5026969;28;20060;-68
2023/08/21 08:38:08;;;;;;;7.30;1.85;;;;;;;24.13;81.34;102304.22;5036466;28;20132;-68
2023/08/21 08:40:43;;;;;;;7.35;1.60;;;;;;;24.19;82.12;102308.81;5017588;28;20059;-67
2023/08/21 08:43:11;;;;;;;11.77;2.25;;;;;;;24.24;77.04;102300.97;5023686;28;20085;-68
2023/08/21 08:45:39;;;;;;;10.93;1.80;;;;;;;24.37;78.74;102306.38;5019999;28;20081;-68
2023/08/21 08:48:07;;;;;;;6.97;1.55;;;;;;;24.58;81.08;102310.78;5027082;28;20132;-68
2023/08/21 08:50:34;;;;;;;10.27;1.95;;;;;;;24.69;80.41;102306.66;5031462;28;20049;-68
2023/08/21 08:53:01;;;;;;;9.75;2.22;;;;;;;24.76;79.63;102306.69;5035209;28;20484;-67
2023/08/21 08:55:42;;;;;;;10.82;1.77;;;;;;;25.03;71.51;102302.97;5024739;28;20044;-68
2023/08/21 08:58:09;;;;;;;8.40;1.60;;;;;;;25.33;71.59;102309.81;5026018;28;20048;-68
2023/08/21 09:00:35;;;;;;;7.22;1.80;;;;;;;25.25;65.31;102305.47;5040116;28;20081;-68
2023/08/21 09:03:03;;;;;;;8.88;1.90;;;;;;;25.40;69.28;102307.91;5029258;28;20470;-68
2023/08/21 09:05:29;;;;;;;9.27;1.88;;;;;;;25.55;68.74;102313.06;5034281;28;20486;-68
2023/08/21 09:08:03;;;;;;;5.43;1.50;;;;;;;25.76;66.89;102311.97;5023227;28;20492;-68
2023/08/21 09:10:30;;;;;;;6.85;1.58;;;;;;;25.99;68.20;102312.31;5029235;28;20050;-68
2023/08/21 09:13:01;;;;;;;6.43;1.70;;;;;;;26.17;62.72;102311.63;5037809;28;20049;-68
2023/08/21 09:15:29;;;;;;;4.55;1.33;;;;;;;26.33;65.17;102310.28;5034595;28;20038;-68
2023/08/21 09:18:11;;;;;;;9.00;1.70;;;;;;;26.31;62.01;102308.88;5036463;28;20639;-67
2023/08/21 09:20:38;;;;;;;6.25;1.60;;;;;;;26.41;65.05;102301.13;5032103;28;20069;-68
2023/08/21 09:23:05;;;;;;;6.68;1.48;;;;;;;26.39;64.30;102311.28;5025173;28;20049;-68
2023/08/21 09:25:37;;;;;;;7.55;1.50;;;;;;;26.67;64.35;102302.84;5026054;28;20048;-69
2023/08/21 09:28:06;;;;;;;10.68;1.92;;;;;;;26.75;62.87;102302.56;5034224;28;20041;-69
2023/08/21 09:30:46;;;;;;;8.55;1.80;;;;;;;26.79;62.78;102295.72;5034221;28;20049;-68
2023/08/21 09:33:12;;;;;;;7.03;1.70;;;;;;;26.70;62.38;102293.50;5033443;28;20041;-68
2023/08/21 09:35:42;;;;;;;8.23;1.67;;;;;;;26.61;61.36;102301.84;5032746;28;20155;-68
2023/08/21 09:38:09;;;;;;;10.05;1.77;;;;;;;26.58;63.05;102299.63;5017818;28;20083;-70
2023/08/21 09:40:40;;;;;;;7.87;1.80;;;;;;;26.54;63.77;102302.91;5031445;28;20056;-67
2023/08/21 09:43:11;;;;;;;5.80;1.83;;;;;;;26.74;61.77;102305.50;5037227;28;20348;-67
2023/08/21 09:45:38;;;;;;;9.02;1.70;;;;;;;26.87;60.01;102304.56;5036910;28;20691;-68
2023/08/21 09:48:06;;;;;;;9.38;3.25;;;;;;;27.00;60.17;102293.69;5026487;28;20045;-67
2023/08/21 09:50:33;;;;;;;6.78;1.80;;;;;;;27.15;61.07;102306.81;5042992;28;20049;-68
2023/08/21 09:53:00;;;;;;;12.97;1.80;;;;;;;27.09;60.87;102296.91;5039149;28;20429;-67
2023/08/21 09:55:29;;;;;;;6.50;1.70;;;;;;;26.91;61.54;102297.69;5035111;28;20482;-68
2023/08/21 09:57:59;;;;;;;6.47;1.65;;;;;;;27.00;62.96;102296.38;5036959;28;20042;-68
2023/08/21 10:00:33;;;;;;;6.25;2.00;;;;;;;27.02;58.40;102292.41;5026379;28;20053;-67
2023/08/21 10:03:02;;;;;;;7.07;1.60;;;;;;;27.07;59.95;102289.06;5030200;28;20143;-68
2023/08/21 10:05:33;;;;;;;6.10;1.63;;;;;;;27.21;58.62;102293.28;5022079;28;20096;-67
2023/08/21 10:08:04;;;;;;;7.43;1.58;;;;;;;27.43;57.99;102284.78;5035735;28;20045;-68
2023/08/21 10:10:33;;;;;;;8.82;2.00;;;;;;;27.50;57.23;102282.03;5034195;28;20048;-67
2023/08/21 10:13:00;;;;;;;6.35;1.80;;;;;;;27.61;57.30;102274.00;5027696;28;20057;-68
2023/08/21 10:15:31;;;;;;;5.70;1.40;;;;;;;27.68;54.93;102275.78;5037136;28;20729;-68
2023/08/21 10:17:58;;;;;;;7.50;1.50;;;;;;;27.49;56.43;102269.59;5017449;28;20045;-67
2023/08/21 10:20:26;;;;;;;7.35;1.40;;;;;;;27.93;60.03;102265.78;5029726;28;20041;-68
2023/08/21 10:22:54;;;;;;;7.47;1.77;;;;;;;27.97;55.17;102258.03;5026950;28;20072;-68
2023/08/21 10:25:25;;;;;;;7.55;2.17;;;;;;;28.07;53.50;102266.41;5028889;28;20574;-67
2023/08/21 10:27:59;;;;;;;4.88;1.35;;;;;;;28.04;55.19;102263.34;5037508;28;20488;-68
2023/08/21 10:30:28;;;;;;;9.60;2.00;;;;;;;28.20;54.46;102265.41;5028447;28;20603;-68
2023/08/21 10:32:57;;;;;;;6.65;1.67;;;;;;;28.20;53.28;102262.69;5029160;28;20053;-68
2023/08/21 10:35:28;;;;;;;6.97;1.77;;;;;;;28.26;55.32;102264.47;5022079;28;20052;-68
2023/08/21 10:38:17;;;;;;;5.07;1.40;;;;;;;28.28;50.52;102250.75;5041092;28;20081;-68
2023/08/21 10:41:10;;;;;;;5.63;1.80;;;;;;;28.24;51.32;102252.28;5024862;28;20055;-68
2023/08/21 10:43:44;;;;;;;6.18;1.70;;;;;;;28.46;50.74;102253.41;5027872;28;20049;-67
2023/08/21 10:46:11;;;;;;;4.50;1.23;;;;;;;28.61;48.00;102254.84;5018546;28;20052;-68
2023/08/21 10:48:39;;;;;;;5.63;1.20;;;;;;;28.53;48.12;102261.41;5038313;28;20056;-68
2023/08/21 10:51:08;;;;;;;5.63;1.20;;;;;;;28.50;47.41;102256.44;5036224;28;20159;-67
2023/08/21 10:53:35;;;;;;;4.05;1.33;;;;;;;28.82;48.23;102259.69;5033226;28;20053;-68
2023/08/21 10:56:04;;;;;;;5.87;1.57;;;;;;;28.58;47.54;102256.16;5032196;28;20053;-67
2023/08/21 10:58:45;;;;;;;7.00;1.88;;;;;;;28.59;49.10;102260.47;5018425;28;20057;-68
2023/08/21 11:01:15;;;;;;;6.20;1.60;;;;;;;28.77;48.33;102263.06;5024370;28;20152;-67
2023/08/21 11:03:46;;;;;;;5.18;1.48;;;;;;;28.70;48.54;102269.66;5027465;28;20502;-68
2023/08/21 11:06:12;;;;;;;5.35;1.55;;;;;;;28.33;50.14;102269.78;5028710;28;20049;-68
2023/08/21 11:08:39;;;;;;;7.97;1.65;;;;;;;28.07;49.56;102282.59;5022329;28;20099;-68
2023/08/21 11:11:06;;;;;;;7.55;1.52;;;;;;;28.08;48.43;102269.94;5036078;28;20052;-68
2023/08/21 11:13:32;;;;;;;4.82;0.90;;;;;;;28.26;49.29;102275.25;5022356;28;20481;-68
2023/08/21 11:16:03;;;;;;;5.57;1.60;;;;;;;28.08;48.08;102269.94;5019036;28;20484;-68
2023/08/21 11:18:35;;;;;;;6.00;1.30;;;;;;;28.33;45.83;102267.91;5038368;28;20052;-68
2023/08/21 11:21:05;;;;;;;3.33;1.25;;;;;;;28.35;47.07;102264.97;5021385;28;20053;-68